createdAt,value
2022-09-03T00:01:27.606Z,16.40
2022-09-03T00:03:59.443Z,16.30
2022-09-03T00:06:31.457Z,16.30
2022-09-03T00:09:04.006Z,16.30
2022-09-03T00:11:40.795Z,16.30
2022-09-03T00:14:22.983Z,16.30
2022-09-03T00:17:07.538Z,16.40
2022-09-03T00:19:37.219Z,16.40
2022-09-03T00:22:11.244Z,16.40
2022-09-03T00:24:39.677Z,16.40
2022-09-03T00:27:15.204Z,16.40
2022-09-03T00:29:46.701Z,16.40
2022-09-03T00:32:18.594Z,16.40
2022-09-03T00:34:47.220Z,16.40
2022-09-03T00:37:15.546Z,16.40
2022-09-03T00:39:43.097Z,16.40
2022-09-03T00:42:13.154Z,16.30
2022-09-03T00:44:44.968Z,16.30
2022-09-03T00:47:16.066Z,16.30
2022-09-03T00:49:48.943Z,16.30
2022-09-03T00:52:33.694Z,16.30
2022-09-03T00:55:00.385Z,16.20
2022-09-03T00:57:47.882Z,16.20
2022-09-03T01:00:19.503Z,16.20
2022-09-03T01:02:49.205Z,16.20
2022-09-03T01:05:18.637Z,16.20
2022-09-03T01:07:58.782Z,16.10
2022-09-03T01:10:39.574Z,16.10
2022-09-03T01:13:12.650Z,16.20
2022-09-03T01:15:42.292Z,16.00
2022-09-03T01:18:11.981Z,15.90
2022-09-03T01:20:55.379Z,15.90
2022-09-03T01:23:21.978Z,15.90
2022-09-03T01:25:59.645Z,15.90
2022-09-03T01:28:33.335Z,15.90
2022-09-03T01:31:17.218Z,15.90
2022-09-03T01:33:47.876Z,15.80
2022-09-03T01:36:14.419Z,15.80
2022-09-03T01:38:45.955Z,15.80
2022-09-03T01:41:38.568Z,15.80
2022-09-03T01:44:26.492Z,15.80
2022-09-03T01:47:02.827Z,15.90
2022-09-03T01:49:38.042Z,15.80
2022-09-03T01:52:12.495Z,15.80
2022-09-03T01:54:55.296Z,15.80
2022-09-03T01:57:36.975Z,15.80
2022-09-03T02:00:13.549Z,15.80
2022-09-03T02:02:41.828Z,15.80
2022-09-03T02:05:15.665Z,15.80
2022-09-03T02:07:46.564Z,15.80
2022-09-03T02:10:14.630Z,15.80
2022-09-03T02:12:44.120Z,15.70
2022-09-03T02:15:12.839Z,15.70
2022-09-03T02:17:41.325Z,15.70
2022-09-03T02:20:11.852Z,15.60
2022-09-03T02:22:39.667Z,15.60
2022-09-03T02:25:07.333Z,15.60
2022-09-03T02:27:34.005Z,15.60
2022-09-03T02:30:03.014Z,15.50
2022-09-03T02:32:29.609Z,15.40
2022-09-03T02:34:56.321Z,15.30
2022-09-03T02:37:23.014Z,15.30
2022-09-03T02:39:51.993Z,15.20
2022-09-03T02:42:21.060Z,15.10
2022-09-03T02:45:00.317Z,15.10
2022-09-03T02:47:30.796Z,15.20
2022-09-03T02:49:59.762Z,15.20
2022-09-03T02:52:26.310Z,15.20
2022-09-03T02:54:52.855Z,15.20
2022-09-03T02:57:27.390Z,15.20
2022-09-03T02:59:56.845Z,15.20
2022-09-03T03:02:23.471Z,15.20
2022-09-03T03:04:50.158Z,15.20
2022-09-03T03:07:16.711Z,15.20
2022-09-03T03:09:44.029Z,15.20
2022-09-03T03:12:10.755Z,15.10
2022-09-03T03:14:39.517Z,15.10
2022-09-03T03:17:06.120Z,15.00
2022-09-03T03:19:35.260Z,15.00
2022-09-03T03:22:04.362Z,15.00
2022-09-03T03:24:33.261Z,15.10
2022-09-03T03:26:59.828Z,15.10
2022-09-03T03:29:26.549Z,15.10
2022-09-03T03:31:53.102Z,15.10
2022-09-03T03:34:19.667Z,15.00
2022-09-03T03:36:46.220Z,15.00
2022-09-03T03:39:15.347Z,15.00
2022-09-03T03:41:41.970Z,15.00
2022-09-03T03:44:08.691Z,15.00
2022-09-03T03:46:39.906Z,15.00
2022-09-03T03:49:07.181Z,14.90
2022-09-03T03:51:34.157Z,14.80
2022-09-03T03:54:04.815Z,14.80
2022-09-03T03:56:37.015Z,14.80
2022-09-03T03:59:04.386Z,14.80
2022-09-03T04:01:33.533Z,14.80
2022-09-03T04:04:02.389Z,14.80
2022-09-03T04:06:28.960Z,14.80
2022-09-03T04:08:55.616Z,14.80
2022-09-03T04:11:23.256Z,14.80
2022-09-03T04:13:50.349Z,14.70
2022-09-03T04:16:18.544Z,14.70
2022-09-03T04:18:45.525Z,14.70
2022-09-03T04:21:14.034Z,14.60
2022-09-03T04:23:42.274Z,14.70
2022-09-03T04:26:09.904Z,14.70
2022-09-03T04:28:36.861Z,14.70
2022-09-03T04:31:10.256Z,14.70
2022-09-03T04:33:40.367Z,14.70
2022-09-03T04:36:16.886Z,14.60
2022-09-03T04:38:44.618Z,14.50
2022-09-03T04:41:12.793Z,14.50
2022-09-03T04:43:39.920Z,14.50
2022-09-03T04:46:12.941Z,14.50
2022-09-03T04:48:44.593Z,14.50
2022-09-03T04:51:13.323Z,14.50
2022-09-03T04:53:41.000Z,14.50
2022-09-03T04:56:13.467Z,14.50
2022-09-03T04:58:41.053Z,14.50
2022-09-03T05:01:11.678Z,14.60
2022-09-03T05:03:40.859Z,14.60
2022-09-03T05:06:10.053Z,14.50
2022-09-03T05:08:37.239Z,14.50
2022-09-03T05:11:06.741Z,14.50
2022-09-03T05:13:36.859Z,14.60
2022-09-03T05:16:07.751Z,14.60
2022-09-03T05:18:40.301Z,14.70
2022-09-03T05:21:10.559Z,14.70
2022-09-03T05:23:39.001Z,14.70
2022-09-03T05:26:10.963Z,14.70
2022-09-03T05:28:38.908Z,14.80
2022-09-03T05:31:09.573Z,14.80
2022-09-03T05:33:36.975Z,14.80
2022-09-03T05:36:16.277Z,14.90
2022-09-03T05:38:45.648Z,14.90
2022-09-03T05:41:14.913Z,14.90
2022-09-03T05:43:44.048Z,14.90
2022-09-03T05:46:11.941Z,14.90
2022-09-03T05:48:43.020Z,14.90
2022-09-03T05:51:16.227Z,14.80
2022-09-03T05:53:43.959Z,14.90
2022-09-03T05:56:12.107Z,14.90
2022-09-03T05:58:44.135Z,14.90
2022-09-03T06:01:10.763Z,14.90
2022-09-03T06:03:37.462Z,14.90
2022-09-03T06:06:05.344Z,14.90
2022-09-03T06:08:32.304Z,15.00
2022-09-03T06:10:59.603Z,15.00
2022-09-03T06:13:29.792Z,15.00
2022-09-03T06:15:59.540Z,15.00
2022-09-03T06:18:29.124Z,14.90
2022-09-03T06:20:56.361Z,14.90
2022-09-03T06:23:23.661Z,14.90
2022-09-03T06:26:10.474Z,15.00
2022-09-03T06:28:38.594Z,15.00
2022-09-03T06:31:08.184Z,15.10
2022-09-03T06:33:35.761Z,15.10
2022-09-03T06:36:08.787Z,15.10
2022-09-03T06:38:36.793Z,15.20
2022-09-03T06:41:07.481Z,15.20
2022-09-03T06:43:35.191Z,15.20
2022-09-03T06:46:03.108Z,15.30
2022-09-03T06:48:33.161Z,15.30
2022-09-03T06:51:07.341Z,15.40
2022-09-03T06:53:35.274Z,15.40
2022-09-03T06:56:03.221Z,15.40
2022-09-03T06:58:30.551Z,15.40
2022-09-03T07:01:07.489Z,15.50
2022-09-03T07:03:34.584Z,15.50
2022-09-03T07:06:05.094Z,15.60
2022-09-03T07:08:32.870Z,15.60
2022-09-03T07:11:08.963Z,15.60
2022-09-03T07:13:39.139Z,15.50
2022-09-03T07:16:12.770Z,15.60
2022-09-03T07:18:43.632Z,15.60
2022-09-03T07:21:11.783Z,15.60
2022-09-03T07:23:42.420Z,15.60
2022-09-03T07:26:10.658Z,15.70
2022-09-03T07:28:39.976Z,15.70
2022-09-03T07:31:11.726Z,15.70
2022-09-03T07:33:39.220Z,15.70
2022-09-03T07:36:14.265Z,15.80
2022-09-03T07:38:41.961Z,15.80
2022-09-03T07:41:09.537Z,15.90
2022-09-03T07:43:39.974Z,16.00
2022-09-03T07:46:07.588Z,16.20
2022-09-03T07:48:37.482Z,16.40
2022-09-03T07:51:04.337Z,16.50
2022-09-03T07:53:30.991Z,16.60
2022-09-03T07:56:12.672Z,16.70
2022-09-03T07:58:42.183Z,16.80
2022-09-03T08:01:11.186Z,16.80
2022-09-03T08:03:39.286Z,16.80
2022-09-03T08:06:06.985Z,16.70
2022-09-03T08:08:35.551Z,16.70
2022-09-03T08:11:19.309Z,16.70
2022-09-03T08:13:57.588Z,16.80
2022-09-03T08:16:24.333Z,16.80
2022-09-03T08:18:51.195Z,16.90
2022-09-03T08:21:19.320Z,17.00
2022-09-03T08:23:47.254Z,17.10
2022-09-03T08:26:14.793Z,17.10
2022-09-03T08:28:43.146Z,17.10
2022-09-03T08:31:15.980Z,17.20
2022-09-03T08:33:44.032Z,17.20
2022-09-03T08:36:15.206Z,17.20
2022-09-03T08:38:43.495Z,17.20
2022-09-03T08:41:19.191Z,17.20
2022-09-03T08:43:45.726Z,17.10
2022-09-03T08:46:12.886Z,17.10
2022-09-03T08:48:39.501Z,17.20
2022-09-03T08:51:07.495Z,17.20
2022-09-03T08:53:55.158Z,17.20
2022-09-03T08:56:24.722Z,17.20
2022-09-03T08:58:51.411Z,17.20
2022-09-03T09:01:38.396Z,17.30
2022-09-03T09:04:20.193Z,17.30
2022-09-03T09:06:46.742Z,17.40
2022-09-03T09:09:19.279Z,17.40
2022-09-03T09:11:48.717Z,17.40
2022-09-03T09:14:20.826Z,17.30
2022-09-03T09:16:47.379Z,17.40
2022-09-03T09:19:23.854Z,17.50
2022-09-03T09:21:58.624Z,17.50
2022-09-03T09:24:29.127Z,17.50
2022-09-03T09:26:59.868Z,17.60
2022-09-03T09:29:32.113Z,17.60
2022-09-03T09:31:58.895Z,17.60
2022-09-03T09:34:27.728Z,17.60
2022-09-03T09:36:56.704Z,17.70
2022-09-03T09:39:26.045Z,17.80
2022-09-03T09:41:58.839Z,17.90
2022-09-03T09:44:26.026Z,18.00
2022-09-03T09:47:04.779Z,18.00
2022-09-03T09:49:32.947Z,18.10
2022-09-03T09:52:09.025Z,18.10
2022-09-03T09:54:35.597Z,18.20
2022-09-03T09:57:06.551Z,18.30
2022-09-03T09:59:34.080Z,18.30
2022-09-03T10:02:22.513Z,18.40
2022-09-03T10:04:51.809Z,18.40
2022-09-03T10:07:25.209Z,18.50
2022-09-03T10:10:02.427Z,18.50
2022-09-03T10:12:44.213Z,18.50
2022-09-03T10:15:29.631Z,18.60
2022-09-03T10:18:05.456Z,18.70
2022-09-03T10:20:32.127Z,18.70
2022-09-03T10:23:04.505Z,18.90
2022-09-03T10:25:58.079Z,18.90
2022-09-03T10:28:28.698Z,19.00
2022-09-03T10:31:16.152Z,19.10
2022-09-03T10:33:49.356Z,19.20
2022-09-03T10:36:21.917Z,19.20
2022-09-03T10:38:51.606Z,19.10
2022-09-03T10:41:33.505Z,19.20
2022-09-03T10:44:03.934Z,19.20
2022-09-03T10:46:38.908Z,19.30
2022-09-03T10:49:23.414Z,19.30
2022-09-03T10:52:08.070Z,19.30
2022-09-03T10:54:51.861Z,19.40
2022-09-03T10:57:30.819Z,19.30
2022-09-03T11:00:10.743Z,19.40
2022-09-03T11:02:49.501Z,19.40
2022-09-03T11:05:26.750Z,19.40
2022-09-03T11:07:58.480Z,19.40
2022-09-03T11:10:31.197Z,19.30
2022-09-03T11:13:00.124Z,19.30
2022-09-03T11:15:29.593Z,19.30
2022-09-03T11:18:03.578Z,19.20
2022-09-03T11:20:30.896Z,19.20
2022-09-03T11:22:59.155Z,19.20
2022-09-03T11:25:31.005Z,19.30
2022-09-03T11:28:00.478Z,19.30
2022-09-03T11:30:57.292Z,19.40
2022-09-03T11:33:25.264Z,19.40
2022-09-03T11:36:00.797Z,19.40
2022-09-03T11:38:31.031Z,19.40
2022-09-03T11:40:57.606Z,19.40
2022-09-03T11:43:27.347Z,19.40
2022-09-03T11:46:13.029Z,19.30
2022-09-03T11:48:46.150Z,19.30
2022-09-03T11:51:31.917Z,19.50
2022-09-03T11:53:58.448Z,19.40
2022-09-03T11:56:25.569Z,19.50
2022-09-03T11:59:04.810Z,19.60
2022-09-03T12:01:31.958Z,19.70
2022-09-03T12:04:03.404Z,19.90
2022-09-03T12:06:48.814Z,19.90
2022-09-03T12:09:28.506Z,20.00
2022-09-03T12:11:55.124Z,20.10
2022-09-03T12:14:27.887Z,20.20
2022-09-03T12:16:54.547Z,20.30
2022-09-03T12:19:26.393Z,20.40
2022-09-03T12:21:56.448Z,20.50
2022-09-03T12:24:26.076Z,20.70
2022-09-03T12:26:56.080Z,20.80
2022-09-03T12:29:27.918Z,20.80
2022-09-03T12:31:56.453Z,20.80
2022-09-03T12:34:23.623Z,20.80
2022-09-03T12:36:51.779Z,20.80
2022-09-03T12:40:04.820Z,20.90
2022-09-03T12:42:12.362Z,20.90
2022-09-03T12:44:41.781Z,21.10
2022-09-03T12:50:05.383Z,21.30
2022-09-03T12:52:44.988Z,21.30
2022-09-03T12:55:18.033Z,21.40
2022-09-03T12:57:57.033Z,21.50
2022-09-03T13:00:30.713Z,21.50
2022-09-03T13:03:03.738Z,21.40
2022-09-03T13:05:36.060Z,21.50
2022-09-03T13:08:05.799Z,21.60
2022-09-03T13:10:37.994Z,21.60
2022-09-03T13:13:24.349Z,21.70
2022-09-03T13:15:56.765Z,21.70
2022-09-03T13:18:29.408Z,21.80
2022-09-03T13:20:55.981Z,21.90
2022-09-03T13:23:25.819Z,22.10
2022-09-03T13:26:00.738Z,22.20
2022-09-03T13:28:43.745Z,22.20
2022-09-03T13:31:15.731Z,22.30
2022-09-03T13:33:47.537Z,22.30
2022-09-03T13:36:19.376Z,22.50
2022-09-03T13:38:49.009Z,22.60
2022-09-03T13:41:36.801Z,22.60
2022-09-03T13:44:10.323Z,22.70
2022-09-03T13:46:43.302Z,22.70
2022-09-03T13:49:34.664Z,22.80
2022-09-03T13:52:07.535Z,22.80
2022-09-03T13:54:48.577Z,22.80
2022-09-03T13:57:38.669Z,22.80
2022-09-03T14:00:10.470Z,22.80
2022-09-03T14:03:00.101Z,22.80
2022-09-03T14:05:46.967Z,22.80
2022-09-03T14:08:35.398Z,22.80
2022-09-03T14:11:23.044Z,22.80
2022-09-03T14:14:02.482Z,22.70
2022-09-03T14:16:29.099Z,22.70
2022-09-03T14:19:03.532Z,22.70
2022-09-03T14:21:40.908Z,22.80
2022-09-03T14:24:12.159Z,22.80
2022-09-03T14:26:49.056Z,22.80
2022-09-03T14:29:18.201Z,22.80
2022-09-03T14:32:03.550Z,22.80
2022-09-03T14:34:42.866Z,22.70
2022-09-03T14:37:30.605Z,22.60
2022-09-03T14:40:11.389Z,22.60
2022-09-03T14:42:50.152Z,22.70
2022-09-03T14:45:34.261Z,22.70
2022-09-03T14:48:07.041Z,22.80
2022-09-03T14:50:43.388Z,22.70
2022-09-03T14:53:30.833Z,22.70
2022-09-03T14:56:22.434Z,22.70
2022-09-03T14:58:49.006Z,22.70
2022-09-03T15:01:37.641Z,22.70
2022-09-03T15:04:24.399Z,22.80
2022-09-03T15:07:11.254Z,22.80
2022-09-03T15:09:45.161Z,22.80
2022-09-03T15:12:46.564Z,22.70
2022-09-03T15:15:15.436Z,22.70
2022-09-03T15:17:55.637Z,22.70
2022-09-03T15:20:26.376Z,22.70
2022-09-03T15:22:52.932Z,22.70
2022-09-03T15:25:21.469Z,22.70
2022-09-03T15:27:55.856Z,22.70
2022-09-03T15:30:22.498Z,22.70
2022-09-03T15:32:49.079Z,22.70
2022-09-03T15:35:31.271Z,22.70
2022-09-03T15:38:04.065Z,22.70
2022-09-03T15:40:36.709Z,22.70
2022-09-03T15:43:09.564Z,22.70
2022-09-03T15:45:36.427Z,22.70
2022-09-03T15:48:21.809Z,22.70
2022-09-03T15:51:10.427Z,22.70
2022-09-03T15:53:41.866Z,22.70
2022-09-03T15:56:26.846Z,22.70
2022-09-03T15:58:53.477Z,22.70
2022-09-03T16:01:35.157Z,22.70
2022-09-03T16:04:11.873Z,22.70
2022-09-03T16:06:55.867Z,22.70
2022-09-03T16:09:22.433Z,22.80
2022-09-03T16:11:56.708Z,22.80
2022-09-03T16:14:31.548Z,22.80
2022-09-03T16:17:08.415Z,22.70
2022-09-03T16:19:43.423Z,22.70
2022-09-03T16:22:33.064Z,22.70
2022-09-03T16:25:07.161Z,22.70
2022-09-03T16:27:40.946Z,22.70
2022-09-03T16:30:08.943Z,22.70
2022-09-03T16:32:42.702Z,22.70
2022-09-03T16:35:18.337Z,22.70
2022-09-03T16:38:05.342Z,22.70
2022-09-03T16:40:40.911Z,22.70
2022-09-03T16:43:39.708Z,22.70
2022-09-03T16:46:05.941Z,22.70
2022-09-03T16:48:59.016Z,22.70
2022-09-03T16:51:26.389Z,22.70
2022-09-03T16:54:13.248Z,22.60
2022-09-03T16:56:54.787Z,22.60
2022-09-03T16:59:21.376Z,22.60
2022-09-03T17:01:55.498Z,22.60
2022-09-03T17:04:34.191Z,22.60
2022-09-03T17:07:06.713Z,22.60
2022-09-03T17:09:33.255Z,22.60
2022-09-03T17:12:05.974Z,22.50
2022-09-03T17:14:55.269Z,22.50
2022-09-03T17:17:27.673Z,22.50
2022-09-03T17:20:01.460Z,22.50
2022-09-03T17:22:32.742Z,22.40
2022-09-03T17:25:06.861Z,22.40
2022-09-03T17:27:33.523Z,22.40
2022-09-03T17:30:10.401Z,22.30
2022-09-03T17:32:46.044Z,22.30
2022-09-03T17:35:33.861Z,22.30
2022-09-03T17:38:11.949Z,22.30
2022-09-03T17:40:59.676Z,22.30
2022-09-03T17:43:31.541Z,22.20
2022-09-03T17:46:13.287Z,22.20
2022-09-03T17:48:51.233Z,22.20
2022-09-03T17:51:36.928Z,22.20
2022-09-03T17:54:16.715Z,22.20
2022-09-03T17:56:46.757Z,22.20
2022-09-03T17:59:22.177Z,22.20
2022-09-03T18:01:52.941Z,22.10
2022-09-03T18:04:25.635Z,22.10
2022-09-03T18:06:57.268Z,22.10
2022-09-03T18:09:29.659Z,22.00
2022-09-03T18:11:58.656Z,22.00
2022-09-03T18:14:47.183Z,22.00
2022-09-03T18:17:27.045Z,22.00
2022-09-03T18:20:20.476Z,22.00
2022-09-03T18:23:14.404Z,22.00
2022-09-03T18:26:02.572Z,21.90
2022-09-03T18:28:56.630Z,21.90
2022-09-03T18:31:42.043Z,21.90
2022-09-03T18:34:27.330Z,21.80
2022-09-03T18:37:15.685Z,21.80
2022-09-03T18:40:05.278Z,21.70
2022-09-03T18:43:17.567Z,21.70
2022-09-03T18:47:05.717Z,21.60
2022-09-03T18:49:30.136Z,21.60
2022-09-03T18:52:37.534Z,21.50
2022-09-03T18:55:31.551Z,21.40
2022-09-03T18:58:35.569Z,21.30
2022-09-03T19:01:26.966Z,21.20
2022-09-03T19:04:36.720Z,21.10
2022-09-03T19:07:28.292Z,21.00
2022-09-03T19:10:22.682Z,20.90
2022-09-03T19:13:08.928Z,20.80
2022-09-03T19:16:21.442Z,20.80
2022-09-03T19:19:13.758Z,20.70
2022-09-03T19:22:06.400Z,20.60
2022-09-03T19:24:51.725Z,20.50
2022-09-03T19:28:00.126Z,20.40
2022-09-03T19:30:50.588Z,20.20
2022-09-03T19:33:51.675Z,20.10
2022-09-03T19:36:37.055Z,20.00
2022-09-03T19:39:40.811Z,20.00
2022-09-03T19:42:25.991Z,20.00
2022-09-03T19:45:11.337Z,20.00
2022-09-03T19:48:19.454Z,20.00
2022-09-03T19:51:12.338Z,20.10
2022-09-03T19:53:57.329Z,20.10
2022-09-03T19:56:46.651Z,20.10
2022-09-03T19:59:36.021Z,20.10
2022-09-03T20:02:23.253Z,20.10
2022-09-03T20:05:20.522Z,20.10
2022-09-03T20:08:09.898Z,20.10
2022-09-03T20:10:39.174Z,20.10
2022-09-03T20:13:13.268Z,20.10
2022-09-03T20:15:55.739Z,20.00
2022-09-03T20:18:42.472Z,20.00
2022-09-03T20:21:32.365Z,19.90
2022-09-03T20:23:59.440Z,19.90
2022-09-03T20:26:47.869Z,19.90
2022-09-03T20:29:29.590Z,19.90
2022-09-03T20:31:58.955Z,19.90
2022-09-03T20:34:35.678Z,19.90
2022-09-03T20:37:05.028Z,19.90
2022-09-03T20:39:35.285Z,19.80
2022-09-03T20:42:22.608Z,19.80
2022-09-03T20:45:06.530Z,19.80
2022-09-03T20:47:42.114Z,19.70
2022-09-03T20:50:09.958Z,19.70
2022-09-03T20:52:45.855Z,19.70
2022-09-03T20:55:24.076Z,19.60
2022-09-03T20:57:59.541Z,19.60
2022-09-03T21:00:28.229Z,19.60
2022-09-03T21:03:12.679Z,19.60
2022-09-03T21:05:43.522Z,19.60
2022-09-03T21:08:40.853Z,19.60
2022-09-03T21:11:10.300Z,19.50
2022-09-03T21:13:59.450Z,19.50
2022-09-03T21:16:50.603Z,19.50
2022-09-03T21:19:19.350Z,19.40
2022-09-03T21:21:49.062Z,19.40
2022-09-03T21:24:20.875Z,19.40
2022-09-03T21:26:51.863Z,19.30
2022-09-03T21:29:22.607Z,19.30
2022-09-03T21:32:04.424Z,19.30
2022-09-03T21:34:35.551Z,19.30
2022-09-03T21:37:04.111Z,19.20
2022-09-03T21:39:32.891Z,19.20
2022-09-03T21:42:11.754Z,19.10
2022-09-03T21:44:56.922Z,19.10
2022-09-03T21:47:24.739Z,19.10
2022-09-03T21:49:57.538Z,19.00
2022-09-03T21:52:43.636Z,19.00
2022-09-03T21:55:20.698Z,19.00
2022-09-03T21:58:08.235Z,18.90
2022-09-03T22:00:34.854Z,18.90
2022-09-03T22:03:04.559Z,18.90
2022-09-03T22:05:38.819Z,18.90
2022-09-03T22:08:05.411Z,18.80
2022-09-03T22:10:42.704Z,18.80
2022-09-03T22:13:09.453Z,18.70
2022-09-03T22:15:39.553Z,18.70
2022-09-03T22:18:15.962Z,18.60
2022-09-03T22:20:52.632Z,18.60
2022-09-03T22:23:23.851Z,18.60
2022-09-03T22:26:04.273Z,18.60
2022-09-03T22:28:37.754Z,18.50
2022-09-03T22:31:08.424Z,18.50
2022-09-03T22:33:37.938Z,18.50
2022-09-03T22:36:13.283Z,18.40
2022-09-03T22:38:42.938Z,18.40
2022-09-03T22:41:16.037Z,18.40
2022-09-03T22:43:49.143Z,18.40
2022-09-03T22:46:17.848Z,18.40
2022-09-03T22:48:59.476Z,18.30
2022-09-03T22:51:30.712Z,18.30
2022-09-03T22:54:12.443Z,18.30
2022-09-03T22:56:41.006Z,18.30
2022-09-03T22:59:11.316Z,18.20
2022-09-03T23:01:56.289Z,18.20
2022-09-03T23:04:29.431Z,18.20
2022-09-03T23:07:02.626Z,18.20
2022-09-03T23:09:33.150Z,18.10
2022-09-03T23:12:06.604Z,18.10
2022-09-03T23:14:48.609Z,18.00
2022-09-03T23:17:20.179Z,18.00
2022-09-03T23:19:48.637Z,18.00
2022-09-03T23:22:35.871Z,17.90
2022-09-03T23:25:02.426Z,17.90
2022-09-03T23:27:36.312Z,17.90
2022-09-03T23:30:03.347Z,17.80
2022-09-03T23:32:33.507Z,17.80
2022-09-03T23:35:02.188Z,17.80
2022-09-03T23:37:43.895Z,17.70
2022-09-03T23:40:17.334Z,17.70
2022-09-03T23:42:46.908Z,17.70
2022-09-03T23:45:24.890Z,17.60
2022-09-03T23:47:57.419Z,17.60
2022-09-03T23:50:40.542Z,17.50
2022-09-03T23:53:09.888Z,17.50
2022-09-03T23:55:55.958Z,17.50
2022-09-03T23:58:25.758Z,17.40
